createdAt,value
2019-04-29T00:01:17.396Z,97069.66
2019-04-29T00:03:43.343Z,97069.55
2019-04-29T00:06:09.195Z,97074.72
2019-04-29T00:08:35.041Z,97078.26
2019-04-29T00:11:00.877Z,97080.05
2019-04-29T00:13:26.702Z,97075.48
2019-04-29T00:16:12.517Z,97073.31
2019-04-29T00:18:58.317Z,97071.65
2019-04-29T00:24:03.922Z,97059.89
2019-04-29T00:26:25.646Z,97075.86
2019-04-29T00:28:51.477Z,97064.66
2019-04-29T00:31:17.299Z,97073.59
2019-04-29T00:33:43.166Z,97068.05
2019-04-29T00:36:48.749Z,97074.47
2019-04-29T00:39:34.466Z,97074.47
2019-04-29T00:42:40.044Z,97063.48
2019-04-29T00:45:06.091Z,97063.48
2019-04-29T00:47:31.925Z,97059.82
2019-04-29T00:49:57.781Z,97070.54
2019-04-29T00:52:23.730Z,97063.75
2019-04-29T00:57:26.655Z,97063.73
2019-04-29T00:59:52.513Z,97065.59
2019-04-29T01:02:18.366Z,97064.53
2019-04-29T01:04:44.300Z,97070.88
2019-04-29T01:07:10.452Z,97070.64
2019-04-29T01:09:36.290Z,97067.00
2019-04-29T01:14:56.192Z,97062.02
2019-04-29T01:19:59.839Z,97053.41
2019-04-29T01:22:25.691Z,97068.13
2019-04-29T01:24:51.525Z,97068.70
2019-04-29T01:27:37.257Z,97061.13
2019-04-29T01:30:44.730Z,97068.20
2019-04-29T01:33:10.591Z,97062.24
2019-04-29T01:35:36.421Z,97061.66
2019-04-29T01:43:50.498Z,97061.27
2019-04-29T01:46:16.353Z,97063.26
2019-04-29T01:48:42.202Z,97060.22
2019-04-29T01:51:08.077Z,97065.23
2019-04-29T01:53:33.926Z,97062.41
2019-04-29T01:55:59.746Z,97019.53
2019-04-29T01:58:25.585Z,97060.26
2019-04-29T02:00:51.435Z,97056.69
2019-04-29T02:03:17.272Z,97057.41
2019-04-29T02:05:43.107Z,97054.77
2019-04-29T02:08:08.971Z,97050.00
2019-04-29T02:10:34.908Z,97053.84
2019-04-29T02:13:00.733Z,97044.89
2019-04-29T02:15:26.611Z,97052.49
2019-04-29T02:17:52.433Z,97048.06
2019-04-29T02:20:18.295Z,97049.38
2019-04-29T02:23:04.030Z,97045.94
2019-04-29T02:28:03.738Z,97047.44
2019-04-29T02:31:11.222Z,97046.64
2019-04-29T02:33:37.064Z,97045.60
2019-04-29T02:36:03.002Z,97041.16
2019-04-29T02:41:36.216Z,97041.40
2019-04-29T02:46:49.434Z,97043.25
2019-04-29T02:49:15.259Z,97047.67
2019-04-29T02:52:01.003Z,97041.13
2019-04-29T02:57:34.070Z,97029.88
2019-04-29T03:07:55.260Z,97036.36
2019-04-29T03:10:21.195Z,97033.01
2019-04-29T03:12:47.147Z,97031.09
2019-04-29T03:15:54.623Z,97039.27
2019-04-29T03:19:02.183Z,97034.52
2019-04-29T03:21:48.036Z,97037.97
2019-04-29T03:24:13.973Z,97034.83
2019-04-29T03:26:39.926Z,97025.99
2019-04-29T03:31:43.687Z,97033.34
2019-04-29T03:34:09.534Z,97034.91
2019-04-29T03:36:35.359Z,97033.85
2019-04-29T03:39:01.212Z,97028.84
2019-04-29T03:41:27.052Z,97027.23
2019-04-29T03:43:52.901Z,97027.53
2019-04-29T03:46:18.742Z,97032.73
2019-04-29T03:48:44.556Z,97034.27
2019-04-29T03:51:13.403Z,97028.30
2019-04-29T03:53:39.258Z,97038.19
2019-04-29T03:56:05.097Z,97039.01
2019-04-29T03:58:30.938Z,97045.58
2019-04-29T04:03:54.379Z,97051.27
2019-04-29T04:11:31.526Z,97047.93
2019-04-29T04:13:57.353Z,97053.63
2019-04-29T04:19:16.822Z,97053.31
2019-04-29T04:21:42.691Z,97053.81
2019-04-29T04:24:08.542Z,97047.06
2019-04-29T04:26:34.377Z,97052.11
2019-04-29T04:29:00.232Z,97049.94
2019-04-29T04:31:26.066Z,97055.70
2019-04-29T04:33:51.909Z,97049.27
2019-04-29T04:36:17.733Z,97051.52
2019-04-29T04:38:43.601Z,97051.89
2019-04-29T04:44:16.665Z,97050.82
2019-04-29T04:47:02.384Z,97047.86
2019-04-29T04:49:28.257Z,97047.86
2019-04-29T04:51:54.096Z,97051.52
2019-04-29T04:54:19.935Z,97053.06
2019-04-29T04:57:27.421Z,97055.43
2019-04-29T04:59:53.270Z,97055.43
2019-04-29T05:05:06.478Z,97044.88
2019-04-29T05:07:32.423Z,97049.19
2019-04-29T05:09:58.275Z,97052.32
2019-04-29T05:12:24.116Z,97048.58
2019-04-29T05:14:49.968Z,97052.45
2019-04-29T05:17:15.809Z,97052.61
2019-04-29T05:19:41.651Z,97047.95
2019-04-29T05:22:07.493Z,97050.52
2019-04-29T05:24:33.446Z,97048.93
2019-04-29T05:26:59.263Z,97052.51
2019-04-29T05:29:25.120Z,97055.19
2019-04-29T05:31:50.968Z,97057.22
2019-04-29T05:42:35.640Z,97062.67
2019-04-29T05:50:53.230Z,97074.23
2019-04-29T05:53:39.054Z,97076.67
2019-04-29T05:56:04.945Z,97066.20
2019-04-29T05:58:36.065Z,97067.77
2019-04-29T06:03:33.535Z,97072.62
2019-04-29T06:06:00.436Z,97073.42
2019-04-29T06:08:26.266Z,97081.14
2019-04-29T06:10:52.297Z,97077.67
2019-04-29T06:13:18.146Z,97073.86
2019-04-29T06:15:43.995Z,97080.42
2019-04-29T06:18:09.829Z,97082.64
2019-04-29T06:20:35.663Z,97081.39
2019-04-29T06:23:01.539Z,97083.39
2019-04-29T06:25:27.375Z,97088.00
2019-04-29T06:27:53.311Z,97085.84
2019-04-29T06:31:00.785Z,97085.59
2019-04-29T06:33:28.974Z,97082.43
2019-04-29T06:36:14.264Z,97088.50
2019-04-29T06:39:21.787Z,97088.50
2019-04-29T06:41:47.608Z,97093.40
2019-04-29T06:44:16.648Z,97089.31
2019-04-29T06:46:41.180Z,97083.37
2019-04-29T06:49:10.379Z,97089.90
2019-04-29T06:51:34.798Z,97081.64
2019-04-29T06:54:00.644Z,97084.81
2019-04-29T06:56:26.510Z,97077.66
2019-04-29T06:58:52.351Z,97080.30
2019-04-29T07:01:18.186Z,97082.80
2019-04-29T07:03:44.038Z,97081.35
2019-04-29T07:06:09.885Z,97085.12
2019-04-29T07:08:35.698Z,97088.28
2019-04-29T07:11:03.043Z,97091.94
2019-04-29T07:13:29.281Z,97090.57
2019-04-29T07:15:55.131Z,97094.63
2019-04-29T07:18:20.959Z,97084.09
2019-04-29T07:20:46.812Z,97085.17
2019-04-29T07:23:12.655Z,97086.35
2019-04-29T07:25:38.487Z,97083.72
2019-04-29T07:28:04.333Z,97074.64
2019-04-29T07:30:30.162Z,97075.55
2019-04-29T07:32:56.032Z,97074.14
2019-04-29T07:35:21.877Z,97075.53
2019-04-29T07:37:47.707Z,97074.92
2019-04-29T07:40:55.182Z,97072.09
2019-04-29T07:43:43.031Z,97078.31
2019-04-29T07:46:28.543Z,97078.31
2019-04-29T07:49:17.190Z,97071.44
2019-04-29T07:51:42.009Z,97071.44
2019-04-29T07:54:11.136Z,97067.25
2019-04-29T07:56:37.779Z,97078.62
2019-04-29T07:59:04.638Z,97078.08
2019-04-29T08:01:51.136Z,97076.91
2019-04-29T08:04:17.002Z,97076.91
2019-04-29T08:07:24.507Z,97079.20
2019-04-29T08:10:22.775Z,97073.05
2019-04-29T08:13:19.633Z,97073.05
2019-04-29T08:15:45.504Z,97072.20
2019-04-29T08:18:16.191Z,97067.77
2019-04-29T08:20:58.982Z,97078.08
2019-04-29T08:23:24.829Z,97078.08
2019-04-29T08:25:51.103Z,97076.94
2019-04-29T08:28:18.444Z,97073.75
2019-04-29T08:30:45.920Z,97076.73
2019-04-29T08:33:31.921Z,97075.30
2019-04-29T08:35:57.753Z,97075.30
2019-04-29T08:38:23.612Z,97082.24
2019-04-29T08:40:50.013Z,97083.08
2019-04-29T08:43:37.166Z,97083.63
2019-04-29T08:46:23.002Z,97085.65
2019-04-29T08:48:48.955Z,97086.09
2019-04-29T08:51:14.789Z,97084.90
2019-04-29T08:53:40.693Z,97087.45
2019-04-29T08:56:10.345Z,97082.13
2019-04-29T08:58:54.178Z,97092.14
2019-04-29T09:01:39.896Z,97086.38
2019-04-29T09:04:05.746Z,97086.38
2019-04-29T09:06:32.640Z,97089.50
2019-04-29T09:08:59.802Z,97085.79
2019-04-29T09:11:47.948Z,97079.81
2019-04-29T09:14:14.724Z,97079.81
2019-04-29T09:16:40.544Z,97078.98
2019-04-29T09:19:06.387Z,97070.28
2019-04-29T09:21:32.229Z,97076.03
2019-04-29T09:23:58.181Z,97071.51
2019-04-29T09:34:39.080Z,97059.44
2019-04-29T09:37:05.003Z,97054.90
2019-04-29T09:45:32.206Z,97046.27
2019-04-29T09:47:58.037Z,97047.11
2019-04-29T09:50:23.908Z,97042.39
2019-04-29T09:53:02.861Z,97030.27
2019-04-29T09:55:45.292Z,97023.23
2019-04-29T09:58:11.154Z,97030.02
2019-04-29T10:00:58.522Z,97030.02
2019-04-29T10:04:04.376Z,97028.22
2019-04-29T10:09:27.902Z,97029.19
2019-04-29T10:11:53.745Z,97029.19
2019-04-29T10:14:19.744Z,97028.30
2019-04-29T10:20:12.681Z,97024.04
2019-04-29T10:22:38.547Z,97024.04
2019-04-29T10:25:46.032Z,97018.91
2019-04-29T10:28:11.996Z,97012.59
2019-04-29T10:30:38.034Z,97002.38
2019-04-29T10:33:23.873Z,97011.56
2019-04-29T10:35:49.718Z,97011.56
2019-04-29T10:38:15.568Z,97011.56
2019-04-29T10:41:23.030Z,96998.16
2019-04-29T10:52:11.084Z,96993.37
2019-04-29T10:54:36.947Z,96989.02
2019-04-29T10:57:44.876Z,97005.28
2019-04-29T11:03:55.822Z,97002.83
2019-04-29T11:06:20.479Z,97002.83
2019-04-29T11:09:09.698Z,97000.95
2019-04-29T11:11:34.188Z,97005.11
2019-04-29T11:14:19.919Z,97004.52
2019-04-29T11:16:46.956Z,97004.52
2019-04-29T11:19:13.835Z,97000.44
2019-04-29T11:21:39.668Z,97004.28
2019-04-29T11:24:25.405Z,97001.41
2019-04-29T11:27:12.354Z,97000.02
2019-04-29T11:29:38.975Z,96991.66
2019-04-29T11:35:12.061Z,96991.88
2019-04-29T11:37:59.993Z,96982.36
2019-04-29T11:40:45.621Z,96989.02
2019-04-29T11:43:31.341Z,96981.56
2019-04-29T11:46:17.181Z,96977.76
2019-04-29T11:48:43.109Z,96977.76
2019-04-29T11:51:28.825Z,96978.44
2019-04-29T11:53:54.786Z,96979.55
2019-04-29T11:56:20.741Z,96966.48
2019-04-29T12:01:53.827Z,96963.02
2019-04-29T12:04:59.449Z,96954.21
2019-04-29T12:10:12.760Z,96955.17
2019-04-29T12:12:38.839Z,96952.99
2019-04-29T12:15:49.208Z,96910.02
2019-04-29T12:26:49.107Z,96943.63
2019-04-29T12:29:18.264Z,96941.39
2019-04-29T12:32:24.917Z,96921.34
2019-04-29T12:40:31.799Z,96924.07
2019-04-29T12:46:11.273Z,96926.55
2019-04-29T12:48:57.104Z,96919.91
2019-04-29T12:51:42.820Z,96921.16
2019-04-29T12:54:22.307Z,96909.72
2019-04-29T12:56:49.492Z,96909.72
2019-04-29T12:59:37.261Z,96895.55
2019-04-29T13:04:57.325Z,96896.27
2019-04-29T13:07:43.279Z,96889.98
2019-04-29T13:12:58.265Z,96896.52
2019-04-29T13:20:52.200Z,96886.22
2019-04-29T13:23:30.023Z,96866.58
2019-04-29T13:26:07.857Z,96864.08
2019-04-29T13:28:34.762Z,96864.08
2019-04-29T13:31:37.136Z,96856.34
2019-04-29T13:36:25.847Z,96860.80
2019-04-29T13:39:09.905Z,96858.80
2019-04-29T13:41:47.651Z,96859.77
2019-04-29T13:45:04.460Z,96859.77
2019-04-29T13:47:32.979Z,96852.81
2019-04-29T13:52:32.819Z,96864.42
2019-04-29T13:55:16.133Z,96849.69
2019-04-29T13:57:26.420Z,96858.13
2019-04-29T14:00:12.203Z,96856.44
2019-04-29T14:02:59.208Z,96849.47
2019-04-29T14:08:13.119Z,96855.80
2019-04-29T14:10:38.972Z,96849.84
2019-04-29T14:13:10.343Z,96853.41
2019-04-29T14:15:52.629Z,96846.88
2019-04-29T14:18:18.496Z,96846.88
2019-04-29T14:20:47.284Z,96846.89
2019-04-29T14:23:31.979Z,96843.44
2019-04-29T14:25:57.839Z,96843.44
2019-04-29T14:28:23.703Z,96842.65
2019-04-29T14:30:49.676Z,96832.83
2019-04-29T14:36:24.668Z,96824.39
2019-04-29T14:39:12.979Z,96833.66
2019-04-29T14:44:45.648Z,96830.73
2019-04-29T14:47:31.393Z,96835.16
2019-04-29T14:50:38.907Z,96835.16
2019-04-29T14:53:19.596Z,96828.83
2019-04-29T14:55:59.627Z,96835.59
2019-04-29T14:58:25.507Z,96835.59
2019-04-29T15:04:17.178Z,96837.45
2019-04-29T15:06:52.703Z,96837.50
2019-04-29T15:09:19.990Z,96837.50
2019-04-29T15:12:06.456Z,96829.55
2019-04-29T15:15:12.047Z,96829.84
2019-04-29T15:17:57.902Z,96829.84
2019-04-29T15:20:43.826Z,96821.61
2019-04-29T15:23:09.690Z,96824.11
2019-04-29T15:25:35.633Z,96824.23
2019-04-29T15:28:01.520Z,96830.34
2019-04-29T15:30:31.604Z,96818.91
2019-04-29T15:32:57.959Z,96825.23
2019-04-29T15:35:43.078Z,96821.46
2019-04-29T15:38:28.915Z,96820.66
2019-04-29T15:40:54.745Z,96820.66
2019-04-29T15:43:24.533Z,96826.23
2019-04-29T15:45:48.635Z,96822.30
2019-04-29T15:48:14.490Z,96822.84
2019-04-29T15:50:40.365Z,96822.55
2019-04-29T15:53:06.214Z,96823.44
2019-04-29T15:55:34.931Z,96821.78
2019-04-29T15:58:22.656Z,96823.33
2019-04-29T16:00:47.887Z,96823.33
2019-04-29T16:03:17.583Z,96834.22
2019-04-29T16:08:35.514Z,96825.61
2019-04-29T16:11:21.439Z,96822.39
2019-04-29T16:16:54.639Z,96819.39
2019-04-29T16:19:20.577Z,96828.94
2019-04-29T16:21:46.523Z,96830.63
2019-04-29T16:26:40.350Z,96825.02
2019-04-29T16:29:12.343Z,96818.49
2019-04-29T16:31:34.296Z,96807.06
2019-04-29T16:34:00.261Z,96806.05
2019-04-29T16:36:26.133Z,96811.59
2019-04-29T16:38:53.506Z,96805.16
2019-04-29T16:41:39.854Z,96813.30
2019-04-29T16:44:35.516Z,96810.30
2019-04-29T16:46:53.864Z,96803.47
2019-04-29T16:49:20.200Z,96803.47
2019-04-29T16:51:47.963Z,96807.61
2019-04-29T16:54:20.433Z,96812.11
2019-04-29T16:56:42.011Z,96808.76
2019-04-29T16:59:09.500Z,96804.27
2019-04-29T17:01:35.815Z,96800.30
2019-04-29T17:04:05.387Z,96800.30
2019-04-29T17:06:29.941Z,96806.95
2019-04-29T17:15:02.252Z,96800.57
2019-04-29T17:17:29.633Z,96796.83
2019-04-29T17:20:16.931Z,96788.19
2019-04-29T17:23:02.800Z,96789.47
2019-04-29T17:25:28.780Z,96789.47
2019-04-29T17:28:24.093Z,96791.33
2019-04-29T17:31:24.537Z,96798.51
2019-04-29T17:34:56.890Z,96776.73
2019-04-29T17:35:14.118Z,96827.41
2019-04-29T17:37:18.193Z,96797.01
2019-04-29T17:39:44.030Z,96797.01
2019-04-29T17:42:09.886Z,96795.99
2019-04-29T17:47:29.697Z,96798.44
2019-04-29T17:50:39.163Z,96810.01
2019-04-29T18:04:36.122Z,96815.79
2019-04-29T18:07:22.082Z,96815.79
2019-04-29T18:10:29.412Z,96807.49
2019-04-29T18:12:56.725Z,96807.49
2019-04-29T18:21:28.615Z,96809.57
2019-04-29T18:24:15.320Z,96809.57
2019-04-29T18:27:01.292Z,96798.44
2019-04-29T18:29:47.238Z,96810.30
2019-04-29T18:32:35.760Z,96817.72
2019-04-29T18:35:20.710Z,96824.59
2019-04-29T18:37:46.585Z,96824.59
2019-04-29T18:40:55.701Z,96818.71
2019-04-29T18:43:23.154Z,96817.72
2019-04-29T18:46:12.553Z,96812.64
2019-04-29T18:48:37.390Z,96812.64
2019-04-29T18:51:03.362Z,96811.08
2019-04-29T18:53:29.253Z,96819.27
2019-04-29T18:55:55.238Z,96822.38
2019-04-29T18:58:21.185Z,96815.79
2019-04-29T19:00:52.124Z,96822.69
2019-04-29T19:09:01.790Z,96831.59
2019-04-29T19:11:30.649Z,96831.59
2019-04-29T19:13:52.196Z,96820.00
2019-04-29T19:16:39.674Z,96840.67
2019-04-29T19:19:25.398Z,96832.11
2019-04-29T19:22:11.218Z,96835.02
2019-04-29T19:24:56.975Z,96837.44
2019-04-29T19:27:42.755Z,96834.50
2019-04-29T19:33:02.663Z,96833.83
2019-04-29T19:35:48.403Z,96838.44
2019-04-29T19:38:15.814Z,96838.44
2019-04-29T19:40:42.733Z,96850.89
2019-04-29T19:43:14.524Z,96844.42
2019-04-29T19:45:38.290Z,96832.09
2019-04-29T19:48:26.921Z,96837.37
2019-04-29T19:51:13.604Z,96837.37
2019-04-29T19:53:42.717Z,96829.89
2019-04-29T19:56:24.250Z,96814.55
2019-04-29T19:59:08.463Z,96827.95
2019-04-29T20:01:32.026Z,96827.95
2019-04-29T20:04:38.007Z,96814.84
2019-04-29T20:07:09.467Z,96814.84
2019-04-29T20:10:14.911Z,96829.41
2019-04-29T20:13:01.984Z,96816.09
2019-04-29T20:16:12.722Z,96829.25
2019-04-29T20:19:01.508Z,96829.25
2019-04-29T20:21:46.022Z,96820.83
2019-04-29T20:24:15.353Z,96820.83
2019-04-29T20:26:43.833Z,96807.60
2019-04-29T20:29:08.063Z,96807.67
2019-04-29T20:31:37.124Z,96808.69
2019-04-29T20:34:01.999Z,96809.45
2019-04-29T20:36:40.988Z,96820.04
2019-04-29T20:38:58.214Z,96814.22
2019-04-29T20:41:40.370Z,96818.59
2019-04-29T20:43:53.676Z,96821.53
2019-04-29T20:46:21.453Z,96819.32
2019-04-29T20:49:07.574Z,96821.28
2019-04-29T20:51:48.687Z,96821.28
2019-04-29T20:54:21.556Z,96817.62
2019-04-29T20:57:05.045Z,96814.39
2019-04-29T20:59:29.018Z,96814.39
2019-04-29T21:02:29.417Z,96817.33
2019-04-29T21:04:46.398Z,96815.53
2019-04-29T21:07:10.536Z,96820.17
2019-04-29T21:09:36.583Z,96820.17
2019-04-29T21:15:36.377Z,96822.91
2019-04-29T21:18:22.102Z,96818.06
2019-04-29T21:20:48.063Z,96817.70
2019-04-29T21:23:14.025Z,96817.70
2019-04-29T21:25:39.981Z,96815.08
2019-04-29T21:28:06.041Z,96809.09
2019-04-29T21:30:51.817Z,96812.03
2019-04-29T21:33:21.163Z,96812.03
2019-04-29T21:41:55.529Z,96815.51
2019-04-29T21:44:41.618Z,96817.39
2019-04-29T21:47:08.143Z,96820.23
2019-04-29T21:49:57.752Z,96817.59
2019-04-29T21:52:24.141Z,96821.43
2019-04-29T21:54:51.118Z,96813.30
2019-04-29T21:57:36.955Z,96814.59
2019-04-29T22:03:31.410Z,96816.64
2019-04-29T22:06:10.353Z,96811.86
2019-04-29T22:08:36.307Z,96811.86
2019-04-29T22:11:04.935Z,96805.45
2019-04-29T22:18:51.755Z,96819.09
2019-04-29T22:21:15.047Z,96816.94
2019-04-29T22:24:01.329Z,96797.80
2019-04-29T22:26:27.200Z,96797.80
2019-04-29T22:28:57.920Z,96802.28
2019-04-29T22:31:21.075Z,96792.22
2019-04-29T22:34:09.894Z,96792.93
2019-04-29T22:36:59.627Z,96794.96
2019-04-29T22:39:26.713Z,96794.96
2019-04-29T22:42:10.197Z,96803.70
2019-04-29T22:44:57.326Z,96800.05
2019-04-29T22:47:24.941Z,96800.05
2019-04-29T22:49:51.757Z,96806.14
2019-04-29T22:52:17.591Z,96803.45
2019-04-29T22:54:45.513Z,96799.08
2019-04-29T22:57:11.502Z,96795.24
2019-04-29T22:59:37.349Z,96794.41
2019-04-29T23:02:44.841Z,96797.31
2019-04-29T23:05:30.541Z,96797.05
2019-04-29T23:08:00.088Z,96797.05
2019-04-29T23:10:45.612Z,96799.94
2019-04-29T23:13:12.096Z,96798.91
2019-04-29T23:16:01.117Z,96792.31
2019-04-29T23:18:28.895Z,96792.31
2019-04-29T23:21:16.321Z,96790.72
2019-04-29T23:24:01.127Z,96797.31
2019-04-29T23:26:27.101Z,96792.37
2019-04-29T23:28:53.145Z,96792.37
2019-04-29T23:31:22.720Z,96796.47
2019-04-29T23:33:47.089Z,96781.06
2019-04-29T23:36:33.014Z,96790.91
2019-04-29T23:38:58.952Z,96790.91
2019-04-29T23:41:26.084Z,96792.33
2019-04-29T23:43:52.718Z,96789.59
2019-04-29T23:46:18.584Z,96791.69
2019-04-29T23:48:46.485Z,96796.36
2019-04-29T23:51:34.425Z,96787.00
2019-04-29T23:54:03.576Z,96787.00
2019-04-29T23:59:25.368Z,96774.98
